sensor_id;sensor_type;location;lat;lon;timestamp;temperature;humidity
25550;DHT22;13444;50.562;7.262;2022-08-30T00:01:21;17.40;99.90
25550;DHT22;13444;50.562;7.262;2022-08-30T00:03:49;17.40;99.90
25550;DHT22;13444;50.562;7.262;2022-08-30T00:06:17;17.30;99.90
25550;DHT22;13444;50.562;7.262;2022-08-30T00:08:44;17.20;99.90
25550;DHT22;13444;50.562;7.262;2022-08-30T00:11:13;17.20;99.90
25550;DHT22;13444;50.562;7.262;2022-08-30T00:13:40;17.10;99.90
25550;DHT22;13444;50.562;7.262;2022-08-30T00:16:07;17.10;99.90
25550;DHT22;13444;50.562;7.262;2022-08-30T00:18:33;17.00;99.90
25550;DHT22;13444;50.562;7.262;2022-08-30T00:21:01;17.00;99.90
25550;DHT22;13444;50.562;7.262;2022-08-30T00:23:26;17.00;99.90
25550;DHT22;13444;50.562;7.262;2022-08-30T00:25:52;17.00;99.90
25550;DHT22;13444;50.562;7.262;2022-08-30T00:28:17;17.10;99.90
25550;DHT22;13444;50.562;7.262;2022-08-30T00:30:45;17.10;99.90
25550;DHT22;13444;50.562;7.262;2022-08-30T00:33:12;17.00;99.90
25550;DHT22;13444;50.562;7.262;2022-08-30T00:35:38;17.00;99.90
25550;DHT22;13444;50.562;7.262;2022-08-30T00:38:05;16.90;99.90
25550;DHT22;13444;50.562;7.262;2022-08-30T00:40:30;16.90;99.90
25550;DHT22;13444;50.562;7.262;2022-08-30T00:42:57;16.80;99.90
25550;DHT22;13444;50.562;7.262;2022-08-30T00:45:30;16.70;99.90
25550;DHT22;13444;50.562;7.262;2022-08-30T00:47:56;16.70;99.90
25550;DHT22;13444;50.562;7.262;2022-08-30T00:50:30;16.60;99.90
25550;DHT22;13444;50.562;7.262;2022-08-30T00:52:59;16.60;99.90
25550;DHT22;13444;50.562;7.262;2022-08-30T00:55:26;16.50;99.90
25550;DHT22;13444;50.562;7.262;2022-08-30T00:57:57;16.50;99.90
25550;DHT22;13444;50.562;7.262;2022-08-30T01:00:24;16.40;99.90
25550;DHT22;13444;50.562;7.262;2022-08-30T01:02:49;16.40;99.90
25550;DHT22;13444;50.562;7.262;2022-08-30T01:05:15;16.40;99.90
25550;DHT22;13444;50.562;7.262;2022-08-30T01:07:41;16.40;99.90
25550;DHT22;13444;50.562;7.262;2022-08-30T01:10:09;16.40;99.90
25550;DHT22;13444;50.562;7.262;2022-08-30T01:12:38;16.30;99.90
25550;DHT22;13444;50.562;7.262;2022-08-30T01:15:05;16.20;99.90
25550;DHT22;13444;50.562;7.262;2022-08-30T01:17:31;16.10;99.90
25550;DHT22;13444;50.562;7.262;2022-08-30T01:20:06;16.10;99.90
25550;DHT22;13444;50.562;7.262;2022-08-30T01:22:38;16.00;99.90
25550;DHT22;13444;50.562;7.262;2022-08-30T01:25:08;16.00;99.90
25550;DHT22;13444;50.562;7.262;2022-08-30T01:27:46;16.00;99.90
25550;DHT22;13444;50.562;7.262;2022-08-30T01:30:13;16.00;99.90
25550;DHT22;13444;50.562;7.262;2022-08-30T01:32:42;15.90;99.90
25550;DHT22;13444;50.562;7.262;2022-08-30T01:35:12;15.90;99.90
25550;DHT22;13444;50.562;7.262;2022-08-30T01:37:38;15.90;99.90
25550;DHT22;13444;50.562;7.262;2022-08-30T01:40:05;15.90;99.90
25550;DHT22;13444;50.562;7.262;2022-08-30T01:42:31;15.80;99.90
25550;DHT22;13444;50.562;7.262;2022-08-30T01:44:57;15.80;99.90
25550;DHT22;13444;50.562;7.262;2022-08-30T01:47:22;15.80;99.90
25550;DHT22;13444;50.562;7.262;2022-08-30T01:49:48;15.80;99.90
25550;DHT22;13444;50.562;7.262;2022-08-30T01:52:15;15.80;99.90
25550;DHT22;13444;50.562;7.262;2022-08-30T01:54:41;15.70;99.90
25550;DHT22;13444;50.562;7.262;2022-08-30T01:57:13;15.60;99.90
25550;DHT22;13444;50.562;7.262;2022-08-30T01:59:40;15.60;99.90
25550;DHT22;13444;50.562;7.262;2022-08-30T02:02:07;15.50;99.90
25550;DHT22;13444;50.562;7.262;2022-08-30T02:04:33;15.40;99.90
25550;DHT22;13444;50.562;7.262;2022-08-30T02:07:01;15.40;99.90
25550;DHT22;13444;50.562;7.262;2022-08-30T02:09:27;15.30;99.90
25550;DHT22;13444;50.562;7.262;2022-08-30T02:11:52;15.30;99.90
25550;DHT22;13444;50.562;7.262;2022-08-30T02:14:18;15.30;99.90
25550;DHT22;13444;50.562;7.262;2022-08-30T02:16:44;15.20;99.90
25550;DHT22;13444;50.562;7.262;2022-08-30T02:19:10;15.10;99.90
25550;DHT22;13444;50.562;7.262;2022-08-30T02:21:36;15.10;99.90
25550;DHT22;13444;50.562;7.262;2022-08-30T02:24:01;15.00;99.90
25550;DHT22;13444;50.562;7.262;2022-08-30T02:26:27;15.00;99.90
25550;DHT22;13444;50.562;7.262;2022-08-30T02:28:53;14.90;99.90
25550;DHT22;13444;50.562;7.262;2022-08-30T02:31:20;14.80;99.90
25550;DHT22;13444;50.562;7.262;2022-08-30T02:33:46;14.80;99.90
25550;DHT22;13444;50.562;7.262;2022-08-30T02:36:12;14.70;99.90
25550;DHT22;13444;50.562;7.262;2022-08-30T02:38:38;14.70;99.90
25550;DHT22;13444;50.562;7.262;2022-08-30T02:41:04;14.70;99.90
25550;DHT22;13444;50.562;7.262;2022-08-30T02:43:29;14.70;99.90
25550;DHT22;13444;50.562;7.262;2022-08-30T02:45:55;14.70;99.90
25550;DHT22;13444;50.562;7.262;2022-08-30T02:48:20;14.60;99.90
25550;DHT22;13444;50.562;7.262;2022-08-30T02:50:48;14.70;99.90
25550;DHT22;13444;50.562;7.262;2022-08-30T02:53:14;14.70;99.90
25550;DHT22;13444;50.562;7.262;2022-08-30T02:55:39;14.80;99.90
25550;DHT22;13444;50.562;7.262;2022-08-30T02:58:05;14.80;99.90
25550;DHT22;13444;50.562;7.262;2022-08-30T03:00:32;14.80;99.90
25550;DHT22;13444;50.562;7.262;2022-08-30T03:02:59;14.80;99.90
25550;DHT22;13444;50.562;7.262;2022-08-30T03:05:25;14.70;99.90
25550;DHT22;13444;50.562;7.262;2022-08-30T03:07:50;14.70;99.90
25550;DHT22;13444;50.562;7.262;2022-08-30T03:10:16;14.60;99.90
25550;DHT22;13444;50.562;7.262;2022-08-30T03:12:43;14.60;99.90
25550;DHT22;13444;50.562;7.262;2022-08-30T03:15:10;14.50;99.90
25550;DHT22;13444;50.562;7.262;2022-08-30T03:17:39;14.50;99.90
25550;DHT22;13444;50.562;7.262;2022-08-30T03:20:06;14.50;99.90
25550;DHT22;13444;50.562;7.262;2022-08-30T03:22:32;14.50;99.90
25550;DHT22;13444;50.562;7.262;2022-08-30T03:24:58;14.50;99.90
25550;DHT22;13444;50.562;7.262;2022-08-30T03:27:26;14.60;99.90
25550;DHT22;13444;50.562;7.262;2022-08-30T03:29:52;14.70;99.90
25550;DHT22;13444;50.562;7.262;2022-08-30T03:32:18;14.70;99.90
25550;DHT22;13444;50.562;7.262;2022-08-30T03:34:43;14.70;99.90
25550;DHT22;13444;50.562;7.262;2022-08-30T03:37:09;14.70;99.90
25550;DHT22;13444;50.562;7.262;2022-08-30T03:39:35;14.70;99.90
25550;DHT22;13444;50.562;7.262;2022-08-30T03:42:00;14.70;99.90
25550;DHT22;13444;50.562;7.262;2022-08-30T03:44:26;14.80;99.90
25550;DHT22;13444;50.562;7.262;2022-08-30T03:46:51;14.80;99.90
25550;DHT22;13444;50.562;7.262;2022-08-30T03:49:18;14.70;99.90
25550;DHT22;13444;50.562;7.262;2022-08-30T03:51:44;14.60;99.90
25550;DHT22;13444;50.562;7.262;2022-08-30T03:54:09;14.50;99.90
25550;DHT22;13444;50.562;7.262;2022-08-30T03:56:35;14.50;99.90
25550;DHT22;13444;50.562;7.262;2022-08-30T03:59:01;14.40;99.90
25550;DHT22;13444;50.562;7.262;2022-08-30T04:01:27;14.30;99.90
25550;DHT22;13444;50.562;7.262;2022-08-30T04:03:52;14.30;99.90
25550;DHT22;13444;50.562;7.262;2022-08-30T04:06:18;14.20;99.90
25550;DHT22;13444;50.562;7.262;2022-08-30T04:08:43;14.20;99.90
25550;DHT22;13444;50.562;7.262;2022-08-30T04:11:10;14.10;99.90
25550;DHT22;13444;50.562;7.262;2022-08-30T04:13:37;14.10;99.90
25550;DHT22;13444;50.562;7.262;2022-08-30T04:16:02;14.10;99.90
25550;DHT22;13444;50.562;7.262;2022-08-30T04:18:28;14.10;99.90
25550;DHT22;13444;50.562;7.262;2022-08-30T04:20:54;14.00;99.90
25550;DHT22;13444;50.562;7.262;2022-08-30T04:23:20;14.00;99.90
25550;DHT22;13444;50.562;7.262;2022-08-30T04:25:45;14.00;99.90
25550;DHT22;13444;50.562;7.262;2022-08-30T04:28:11;14.00;99.90
25550;DHT22;13444;50.562;7.262;2022-08-30T04:30:41;14.00;99.90
25550;DHT22;13444;50.562;7.262;2022-08-30T04:33:07;14.00;99.90
25550;DHT22;13444;50.562;7.262;2022-08-30T04:35:32;14.00;99.90
25550;DHT22;13444;50.562;7.262;2022-08-30T04:37:58;14.10;99.90
25550;DHT22;13444;50.562;7.262;2022-08-30T04:40:24;14.10;99.90
25550;DHT22;13444;50.562;7.262;2022-08-30T04:42:50;14.10;99.90
25550;DHT22;13444;50.562;7.262;2022-08-30T04:45:19;14.10;99.90
25550;DHT22;13444;50.562;7.262;2022-08-30T04:47:45;14.10;99.90
25550;DHT22;13444;50.562;7.262;2022-08-30T04:50:16;14.00;99.90
25550;DHT22;13444;50.562;7.262;2022-08-30T04:52:42;13.90;99.90
25550;DHT22;13444;50.562;7.262;2022-08-30T04:55:08;13.90;99.90
25550;DHT22;13444;50.562;7.262;2022-08-30T04:57:35;14.00;99.90
25550;DHT22;13444;50.562;7.262;2022-08-30T05:00:01;14.00;99.90
25550;DHT22;13444;50.562;7.262;2022-08-30T05:02:26;13.90;99.90
25550;DHT22;13444;50.562;7.262;2022-08-30T05:04:52;13.90;99.90
25550;DHT22;13444;50.562;7.262;2022-08-30T05:07:37;13.90;99.90
25550;DHT22;13444;50.562;7.262;2022-08-30T05:10:03;13.90;99.90
25550;DHT22;13444;50.562;7.262;2022-08-30T05:12:29;13.90;99.90
25550;DHT22;13444;50.562;7.262;2022-08-30T05:14:54;13.90;99.90
25550;DHT22;13444;50.562;7.262;2022-08-30T05:17:23;13.90;99.90
25550;DHT22;13444;50.562;7.262;2022-08-30T05:19:48;13.90;99.90
25550;DHT22;13444;50.562;7.262;2022-08-30T05:22:14;13.90;99.90
25550;DHT22;13444;50.562;7.262;2022-08-30T05:24:39;13.90;99.90
25550;DHT22;13444;50.562;7.262;2022-08-30T05:27:05;13.90;99.90
25550;DHT22;13444;50.562;7.262;2022-08-30T05:29:31;13.80;99.90
25550;DHT22;13444;50.562;7.262;2022-08-30T05:31:57;13.80;99.90
25550;DHT22;13444;50.562;7.262;2022-08-30T05:34:23;13.90;99.90
25550;DHT22;13444;50.562;7.262;2022-08-30T05:36:48;13.90;99.90
25550;DHT22;13444;50.562;7.262;2022-08-30T05:39:14;13.90;99.90
25550;DHT22;13444;50.562;7.262;2022-08-30T05:41:40;14.00;99.90
25550;DHT22;13444;50.562;7.262;2022-08-30T05:44:07;14.00;99.90
25550;DHT22;13444;50.562;7.262;2022-08-30T05:46:33;14.10;99.90
25550;DHT22;13444;50.562;7.262;2022-08-30T05:49:00;14.10;99.90
25550;DHT22;13444;50.562;7.262;2022-08-30T05:51:29;14.20;99.90
25550;DHT22;13444;50.562;7.262;2022-08-30T05:53:56;14.30;99.90
25550;DHT22;13444;50.562;7.262;2022-08-30T05:56:25;14.30;99.90
25550;DHT22;13444;50.562;7.262;2022-08-30T05:58:51;14.40;99.90
25550;DHT22;13444;50.562;7.262;2022-08-30T06:01:27;14.50;99.90
25550;DHT22;13444;50.562;7.262;2022-08-30T06:03:54;14.60;99.90
25550;DHT22;13444;50.562;7.262;2022-08-30T06:06:20;14.60;99.90
25550;DHT22;13444;50.562;7.262;2022-08-30T06:08:46;14.70;99.90
25550;DHT22;13444;50.562;7.262;2022-08-30T06:11:13;14.70;99.90
25550;DHT22;13444;50.562;7.262;2022-08-30T06:13:39;14.80;99.90
25550;DHT22;13444;50.562;7.262;2022-08-30T06:16:05;14.90;99.90
25550;DHT22;13444;50.562;7.262;2022-08-30T06:18:31;15.00;99.90
25550;DHT22;13444;50.562;7.262;2022-08-30T06:20:56;15.00;99.90
25550;DHT22;13444;50.562;7.262;2022-08-30T06:23:22;15.10;99.90
25550;DHT22;13444;50.562;7.262;2022-08-30T06:25:49;15.00;99.90
25550;DHT22;13444;50.562;7.262;2022-08-30T06:28:15;15.10;99.90
25550;DHT22;13444;50.562;7.262;2022-08-30T06:30:42;15.20;99.90
25550;DHT22;13444;50.562;7.262;2022-08-30T06:33:08;15.30;99.90
25550;DHT22;13444;50.562;7.262;2022-08-30T06:35:34;15.40;99.90
25550;DHT22;13444;50.562;7.262;2022-08-30T06:38:00;15.40;99.90
25550;DHT22;13444;50.562;7.262;2022-08-30T06:40:26;15.50;99.90
25550;DHT22;13444;50.562;7.262;2022-08-30T06:42:51;15.60;99.90
25550;DHT22;13444;50.562;7.262;2022-08-30T06:45:18;15.70;99.90
25550;DHT22;13444;50.562;7.262;2022-08-30T06:47:45;15.80;99.90
25550;DHT22;13444;50.562;7.262;2022-08-30T06:50:12;15.90;99.90
25550;DHT22;13444;50.562;7.262;2022-08-30T06:52:40;16.00;99.90
25550;DHT22;13444;50.562;7.262;2022-08-30T06:55:07;16.10;99.90
25550;DHT22;13444;50.562;7.262;2022-08-30T06:57:33;16.20;99.90
25550;DHT22;13444;50.562;7.262;2022-08-30T06:59:58;16.30;99.90
25550;DHT22;13444;50.562;7.262;2022-08-30T07:02:24;16.30;99.90
25550;DHT22;13444;50.562;7.262;2022-08-30T07:04:50;16.50;99.90
25550;DHT22;13444;50.562;7.262;2022-08-30T07:07:15;16.60;99.90
25550;DHT22;13444;50.562;7.262;2022-08-30T07:09:41;16.80;99.90
25550;DHT22;13444;50.562;7.262;2022-08-30T07:12:10;16.90;99.90
25550;DHT22;13444;50.562;7.262;2022-08-30T07:14:36;17.10;99.90
25550;DHT22;13444;50.562;7.262;2022-08-30T07:17:02;17.40;99.90
25550;DHT22;13444;50.562;7.262;2022-08-30T07:19:48;17.50;99.90
25550;DHT22;13444;50.562;7.262;2022-08-30T07:22:14;17.60;99.90
25550;DHT22;13444;50.562;7.262;2022-08-30T07:24:40;17.70;99.90
25550;DHT22;13444;50.562;7.262;2022-08-30T07:27:05;17.90;99.90
25550;DHT22;13444;50.562;7.262;2022-08-30T07:29:31;18.00;99.90
25550;DHT22;13444;50.562;7.262;2022-08-30T07:31:56;18.30;99.90
25550;DHT22;13444;50.562;7.262;2022-08-30T07:34:22;18.60;99.90
25550;DHT22;13444;50.562;7.262;2022-08-30T07:36:47;18.70;99.90
25550;DHT22;13444;50.562;7.262;2022-08-30T07:39:13;18.90;99.90
25550;DHT22;13444;50.562;7.262;2022-08-30T07:41:38;19.10;99.90
25550;DHT22;13444;50.562;7.262;2022-08-30T07:44:06;19.40;99.90
25550;DHT22;13444;50.562;7.262;2022-08-30T07:46:32;19.80;99.90
25550;DHT22;13444;50.562;7.262;2022-08-30T07:48:59;20.10;99.90
25550;DHT22;13444;50.562;7.262;2022-08-30T07:51:26;20.50;99.90
25550;DHT22;13444;50.562;7.262;2022-08-30T07:53:52;20.90;99.90
25550;DHT22;13444;50.562;7.262;2022-08-30T07:56:19;21.20;99.90
25550;DHT22;13444;50.562;7.262;2022-08-30T07:58:45;21.50;99.90
25550;DHT22;13444;50.562;7.262;2022-08-30T08:01:11;21.80;99.90
25550;DHT22;13444;50.562;7.262;2022-08-30T08:03:38;22.10;99.90
25550;DHT22;13444;50.562;7.262;2022-08-30T08:06:08;22.40;99.90
25550;DHT22;13444;50.562;7.262;2022-08-30T08:08:35;22.70;99.90
25550;DHT22;13444;50.562;7.262;2022-08-30T08:11:14;23.00;99.90
25550;DHT22;13444;50.562;7.262;2022-08-30T08:13:41;23.40;99.90
25550;DHT22;13444;50.562;7.262;2022-08-30T08:16:08;23.70;99.90
25550;DHT22;13444;50.562;7.262;2022-08-30T08:18:34;23.80;99.90
25550;DHT22;13444;50.562;7.262;2022-08-30T08:21:00;24.20;99.90
25550;DHT22;13444;50.562;7.262;2022-08-30T08:23:29;24.60;99.90
25550;DHT22;13444;50.562;7.262;2022-08-30T08:25:55;25.00;99.90
25550;DHT22;13444;50.562;7.262;2022-08-30T08:28:24;25.40;99.90
25550;DHT22;13444;50.562;7.262;2022-08-30T08:30:50;25.70;99.90
25550;DHT22;13444;50.562;7.262;2022-08-30T08:33:16;25.90;99.90
25550;DHT22;13444;50.562;7.262;2022-08-30T08:35:42;26.20;99.90
25550;DHT22;13444;50.562;7.262;2022-08-30T08:38:08;26.50;99.90
25550;DHT22;13444;50.562;7.262;2022-08-30T08:41:02;26.90;99.90
25550;DHT22;13444;50.562;7.262;2022-08-30T08:43:34;27.10;99.90
25550;DHT22;13444;50.562;7.262;2022-08-30T08:47:10;27.40;99.90
25550;DHT22;13444;50.562;7.262;2022-08-30T08:49:16;27.80;99.90
25550;DHT22;13444;50.562;7.262;2022-08-30T08:51:42;27.80;99.90
25550;DHT22;13444;50.562;7.262;2022-08-30T08:54:38;28.00;99.90
25550;DHT22;13444;50.562;7.262;2022-08-30T08:57:06;28.30;99.90
25550;DHT22;13444;50.562;7.262;2022-08-30T08:59:33;28.50;99.90
25550;DHT22;13444;50.562;7.262;2022-08-30T09:02:01;28.60;99.90
25550;DHT22;13444;50.562;7.262;2022-08-30T09:04:36;28.80;99.90
25550;DHT22;13444;50.562;7.262;2022-08-30T09:07:16;29.10;99.90
25550;DHT22;13444;50.562;7.262;2022-08-30T09:09:43;28.90;99.90
25550;DHT22;13444;50.562;7.262;2022-08-30T09:12:10;29.10;99.90
25550;DHT22;13444;50.562;7.262;2022-08-30T09:14:42;29.40;99.60
25550;DHT22;13444;50.562;7.262;2022-08-30T09:17:11;29.40;99.80
25550;DHT22;13444;50.562;7.262;2022-08-30T09:22:25;29.50;98.90
25550;DHT22;13444;50.562;7.262;2022-08-30T09:27:41;29.70;98.90
25550;DHT22;13444;50.562;7.262;2022-08-30T09:30:23;30.10;98.30
25550;DHT22;13444;50.562;7.262;2022-08-30T09:33:04;30.30;97.30
25550;DHT22;13444;50.562;7.262;2022-08-30T09:35:50;30.50;97.20
25550;DHT22;13444;50.562;7.262;2022-08-30T09:38:22;30.50;96.20
25550;DHT22;13444;50.562;7.262;2022-08-30T09:40:51;30.50;96.70
25550;DHT22;13444;50.562;7.262;2022-08-30T09:45:45;31.00;95.50
25550;DHT22;13444;50.562;7.262;2022-08-30T09:48:28;31.10;95.20
25550;DHT22;13444;50.562;7.262;2022-08-30T09:51:18;31.30;95.50
25550;DHT22;13444;50.562;7.262;2022-08-30T09:54:13;31.70;94.40
25550;DHT22;13444;50.562;7.262;2022-08-30T09:56:48;32.10;94.00
25550;DHT22;13444;50.562;7.262;2022-08-30T09:59:44;32.30;92.90
25550;DHT22;13444;50.562;7.262;2022-08-30T10:05:13;32.20;92.80
25550;DHT22;13444;50.562;7.262;2022-08-30T10:08:00;32.10;91.80
25550;DHT22;13444;50.562;7.262;2022-08-30T10:10:39;31.90;92.00
25550;DHT22;13444;50.562;7.262;2022-08-30T10:18:50;32.50;90.20
25550;DHT22;13444;50.562;7.262;2022-08-30T10:21:34;32.60;90.90
25550;DHT22;13444;50.562;7.262;2022-08-30T10:24:08;33.00;89.30
25550;DHT22;13444;50.562;7.262;2022-08-30T10:26:46;32.70;88.50
25550;DHT22;13444;50.562;7.262;2022-08-30T10:29:18;32.80;89.10
25550;DHT22;13444;50.562;7.262;2022-08-30T10:31:51;32.70;88.90
25550;DHT22;13444;50.562;7.262;2022-08-30T10:34:25;32.90;88.50
25550;DHT22;13444;50.562;7.262;2022-08-30T10:36:58;33.20;86.40
25550;DHT22;13444;50.562;7.262;2022-08-30T10:39:30;33.50;87.50
25550;DHT22;13444;50.562;7.262;2022-08-30T10:42:07;34.00;87.00
25550;DHT22;13444;50.562;7.262;2022-08-30T10:44:38;34.40;84.80
25550;DHT22;13444;50.562;7.262;2022-08-30T10:47:20;34.20;80.80
25550;DHT22;13444;50.562;7.262;2022-08-30T10:49:50;34.00;83.10
25550;DHT22;13444;50.562;7.262;2022-08-30T10:55:15;34.10;82.60
25550;DHT22;13444;50.562;7.262;2022-08-30T10:57:43;34.40;81.10
25550;DHT22;13444;50.562;7.262;2022-08-30T11:00:15;34.60;79.70
25550;DHT22;13444;50.562;7.262;2022-08-30T11:02:58;34.80;79.40
25550;DHT22;13444;50.562;7.262;2022-08-30T11:05:59;35.10;79.30
25550;DHT22;13444;50.562;7.262;2022-08-30T11:14:23;36.30;74.40
25550;DHT22;13444;50.562;7.262;2022-08-30T11:16:51;36.00;70.80
25550;DHT22;13444;50.562;7.262;2022-08-30T11:21:49;35.90;71.60
25550;DHT22;13444;50.562;7.262;2022-08-30T11:31:53;36.10;70.60
25550;DHT22;13444;50.562;7.262;2022-08-30T11:37:37;37.00;69.70
25550;DHT22;13444;50.562;7.262;2022-08-30T11:42:45;37.90;67.00
25550;DHT22;13444;50.562;7.262;2022-08-30T11:53:54;36.40;65.60
25550;DHT22;13444;50.562;7.262;2022-08-30T11:58:29;36.60;65.60
25550;DHT22;13444;50.562;7.262;2022-08-30T12:01:21;36.70;65.10
25550;DHT22;13444;50.562;7.262;2022-08-30T12:06:51;36.70;64.60
25550;DHT22;13444;50.562;7.262;2022-08-30T12:14:41;36.00;64.80
25550;DHT22;13444;50.562;7.262;2022-08-30T12:17:31;35.80;64.10
25550;DHT22;13444;50.562;7.262;2022-08-30T12:20:43;35.60;65.00
25550;DHT22;13444;50.562;7.262;2022-08-30T12:26:31;35.80;64.50
25550;DHT22;13444;50.562;7.262;2022-08-30T12:29:12;35.50;63.80
25550;DHT22;13444;50.562;7.262;2022-08-30T12:31:44;34.40;65.60
25550;DHT22;13444;50.562;7.262;2022-08-30T12:34:27;34.20;66.40
25550;DHT22;13444;50.562;7.262;2022-08-30T12:37:02;34.30;67.20
25550;DHT22;13444;50.562;7.262;2022-08-30T12:39:34;34.30;66.60
25550;DHT22;13444;50.562;7.262;2022-08-30T12:42:19;34.40;66.40
25550;DHT22;13444;50.562;7.262;2022-08-30T12:44:47;34.60;67.80
25550;DHT22;13444;50.562;7.262;2022-08-30T12:47:17;35.20;67.50
25550;DHT22;13444;50.562;7.262;2022-08-30T12:49:44;35.60;66.00
25550;DHT22;13444;50.562;7.262;2022-08-30T12:52:22;36.00;65.50
25550;DHT22;13444;50.562;7.262;2022-08-30T12:54:55;35.40;64.30
25550;DHT22;13444;50.562;7.262;2022-08-30T13:00:05;35.10;67.40
25550;DHT22;13444;50.562;7.262;2022-08-30T13:02:47;35.40;66.80
25550;DHT22;13444;50.562;7.262;2022-08-30T13:05:43;35.00;65.60
25550;DHT22;13444;50.562;7.262;2022-08-30T13:10:57;34.10;67.40
25550;DHT22;13444;50.562;7.262;2022-08-30T13:13:33;33.60;67.30
25550;DHT22;13444;50.562;7.262;2022-08-30T13:16:22;33.40;69.20
25550;DHT22;13444;50.562;7.262;2022-08-30T13:18:49;33.20;68.80
25550;DHT22;13444;50.562;7.262;2022-08-30T13:21:28;33.10;68.60
25550;DHT22;13444;50.562;7.262;2022-08-30T13:23:59;32.90;69.10
25550;DHT22;13444;50.562;7.262;2022-08-30T13:26:26;32.50;69.30
25550;DHT22;13444;50.562;7.262;2022-08-30T13:28:58;32.10;69.90
25550;DHT22;13444;50.562;7.262;2022-08-30T13:31:24;31.60;71.00
25550;DHT22;13444;50.562;7.262;2022-08-30T13:33:51;31.50;71.30
25550;DHT22;13444;50.562;7.262;2022-08-30T13:36:22;31.40;72.00
25550;DHT22;13444;50.562;7.262;2022-08-30T13:38:49;31.40;72.60
25550;DHT22;13444;50.562;7.262;2022-08-30T13:41:15;31.30;72.30
25550;DHT22;13444;50.562;7.262;2022-08-30T13:43:41;31.20;72.00
25550;DHT22;13444;50.562;7.262;2022-08-30T13:46:07;31.10;72.80
25550;DHT22;13444;50.562;7.262;2022-08-30T13:48:33;31.00;73.00
25550;DHT22;13444;50.562;7.262;2022-08-30T13:50:58;30.90;72.70
25550;DHT22;13444;50.562;7.262;2022-08-30T13:53:24;30.80;73.50
25550;DHT22;13444;50.562;7.262;2022-08-30T13:55:50;30.60;73.30
25550;DHT22;13444;50.562;7.262;2022-08-30T13:58:16;30.60;73.50
25550;DHT22;13444;50.562;7.262;2022-08-30T14:00:43;30.70;73.30
25550;DHT22;13444;50.562;7.262;2022-08-30T14:03:13;30.90;73.10
25550;DHT22;13444;50.562;7.262;2022-08-30T14:05:40;31.00;73.90
25550;DHT22;13444;50.562;7.262;2022-08-30T14:08:07;31.10;73.40
25550;DHT22;13444;50.562;7.262;2022-08-30T14:10:34;31.10;72.80
25550;DHT22;13444;50.562;7.262;2022-08-30T14:12:59;30.90;73.40
25550;DHT22;13444;50.562;7.262;2022-08-30T14:15:25;30.80;73.40
25550;DHT22;13444;50.562;7.262;2022-08-30T14:17:51;30.60;73.10
25550;DHT22;13444;50.562;7.262;2022-08-30T14:20:17;30.50;73.40
25550;DHT22;13444;50.562;7.262;2022-08-30T14:22:43;30.50;73.90
25550;DHT22;13444;50.562;7.262;2022-08-30T14:25:08;30.50;73.30
25550;DHT22;13444;50.562;7.262;2022-08-30T14:27:34;30.60;74.10
25550;DHT22;13444;50.562;7.262;2022-08-30T14:29:59;30.70;73.80
25550;DHT22;13444;50.562;7.262;2022-08-30T14:32:25;30.90;74.10
25550;DHT22;13444;50.562;7.262;2022-08-30T14:34:50;31.00;74.30
25550;DHT22;13444;50.562;7.262;2022-08-30T14:37:16;31.00;73.20
25550;DHT22;13444;50.562;7.262;2022-08-30T14:39:42;31.00;74.00
25550;DHT22;13444;50.562;7.262;2022-08-30T14:42:08;30.90;73.90
25550;DHT22;13444;50.562;7.262;2022-08-30T14:44:35;30.80;73.50
25550;DHT22;13444;50.562;7.262;2022-08-30T14:47:02;30.60;74.40
25550;DHT22;13444;50.562;7.262;2022-08-30T14:49:28;30.50;73.90
25550;DHT22;13444;50.562;7.262;2022-08-30T14:51:54;30.40;74.30
25550;DHT22;13444;50.562;7.262;2022-08-30T14:54:23;30.40;74.70
25550;DHT22;13444;50.562;7.262;2022-08-30T14:56:49;30.50;75.80
25550;DHT22;13444;50.562;7.262;2022-08-30T14:59:15;30.40;74.20
25550;DHT22;13444;50.562;7.262;2022-08-30T15:01:41;30.50;73.70
25550;DHT22;13444;50.562;7.262;2022-08-30T15:04:08;30.40;73.90
25550;DHT22;13444;50.562;7.262;2022-08-30T15:06:35;30.50;74.10
25550;DHT22;13444;50.562;7.262;2022-08-30T15:09:02;30.50;74.40
25550;DHT22;13444;50.562;7.262;2022-08-30T15:11:27;30.30;74.20
25550;DHT22;13444;50.562;7.262;2022-08-30T15:13:53;30.30;75.00
25550;DHT22;13444;50.562;7.262;2022-08-30T15:16:27;30.30;75.40
25550;DHT22;13444;50.562;7.262;2022-08-30T15:18:53;30.40;74.70
25550;DHT22;13444;50.562;7.262;2022-08-30T15:21:24;30.40;74.30
25550;DHT22;13444;50.562;7.262;2022-08-30T15:23:50;30.30;74.40
25550;DHT22;13444;50.562;7.262;2022-08-30T15:26:16;30.10;74.20
25550;DHT22;13444;50.562;7.262;2022-08-30T15:28:41;30.10;75.00
25550;DHT22;13444;50.562;7.262;2022-08-30T15:31:07;30.10;75.10
25550;DHT22;13444;50.562;7.262;2022-08-30T15:33:32;30.00;75.00
25550;DHT22;13444;50.562;7.262;2022-08-30T15:36:02;30.00;75.00
25550;DHT22;13444;50.562;7.262;2022-08-30T15:38:29;29.90;74.80
25550;DHT22;13444;50.562;7.262;2022-08-30T15:40:55;29.90;75.20
25550;DHT22;13444;50.562;7.262;2022-08-30T15:43:24;29.80;75.00
25550;DHT22;13444;50.562;7.262;2022-08-30T15:45:50;29.80;75.10
25550;DHT22;13444;50.562;7.262;2022-08-30T15:48:17;29.80;74.80
25550;DHT22;13444;50.562;7.262;2022-08-30T15:50:43;29.80;75.00
25550;DHT22;13444;50.562;7.262;2022-08-30T15:53:08;29.70;75.10
25550;DHT22;13444;50.562;7.262;2022-08-30T15:55:34;29.70;75.30
25550;DHT22;13444;50.562;7.262;2022-08-30T15:57:59;29.70;75.60
25550;DHT22;13444;50.562;7.262;2022-08-30T16:00:25;29.60;75.60
25550;DHT22;13444;50.562;7.262;2022-08-30T16:02:50;29.60;75.40
25550;DHT22;13444;50.562;7.262;2022-08-30T16:05:18;29.70;75.20
25550;DHT22;13444;50.562;7.262;2022-08-30T16:07:44;29.60;75.70
25550;DHT22;13444;50.562;7.262;2022-08-30T16:10:12;29.60;75.50
25550;DHT22;13444;50.562;7.262;2022-08-30T16:12:38;29.50;75.40
25550;DHT22;13444;50.562;7.262;2022-08-30T16:15:04;29.50;75.30
25550;DHT22;13444;50.562;7.262;2022-08-30T16:17:29;29.60;75.70
25550;DHT22;13444;50.562;7.262;2022-08-30T16:19:55;29.50;74.80
25550;DHT22;13444;50.562;7.262;2022-08-30T16:22:20;29.50;75.10
25550;DHT22;13444;50.562;7.262;2022-08-30T16:24:47;29.40;75.10
25550;DHT22;13444;50.562;7.262;2022-08-30T16:27:13;29.40;75.20
25550;DHT22;13444;50.562;7.262;2022-08-30T16:29:38;29.40;75.20
25550;DHT22;13444;50.562;7.262;2022-08-30T16:32:04;29.40;75.00
25550;DHT22;13444;50.562;7.262;2022-08-30T16:34:29;29.40;75.10
25550;DHT22;13444;50.562;7.262;2022-08-30T16:36:55;29.30;75.10
25550;DHT22;13444;50.562;7.262;2022-08-30T16:39:21;29.30;75.70
25550;DHT22;13444;50.562;7.262;2022-08-30T16:41:46;29.30;76.40
25550;DHT22;13444;50.562;7.262;2022-08-30T16:44:12;29.20;77.00
25550;DHT22;13444;50.562;7.262;2022-08-30T16:46:38;29.20;77.20
25550;DHT22;13444;50.562;7.262;2022-08-30T16:49:05;29.10;77.30